createdAt,value
2023-10-10T00:04:42.434Z,16.86
2023-10-10T00:09:46.036Z,16.80
2023-10-10T00:14:52.113Z,16.73
2023-10-10T00:19:55.900Z,16.59
2023-10-10T00:24:58.141Z,16.78
2023-10-10T00:30:01.497Z,17.20
2023-10-10T00:35:07.306Z,17.37
2023-10-10T00:40:11.468Z,16.86
2023-10-10T00:45:15.648Z,16.62
2023-10-10T00:50:26.081Z,16.62
2023-10-10T00:55:34.755Z,17.16
2023-10-10T01:00:43.661Z,16.86
2023-10-10T01:05:53.788Z,16.45
2023-10-10T01:11:02.300Z,16.32
2023-10-10T01:16:06.875Z,16.12
2023-10-10T01:21:10.550Z,16.21
2023-10-10T01:26:12.683Z,16.91
2023-10-10T01:31:19.460Z,17.03
2023-10-10T01:36:22.837Z,16.76
2023-10-10T01:41:40.128Z,16.47
2023-10-10T01:46:42.900Z,16.23
2023-10-10T01:51:45.217Z,15.99
2023-10-10T01:56:48.339Z,16.03
2023-10-10T02:01:53.024Z,15.88
2023-10-10T02:07:05.849Z,15.98
2023-10-10T02:12:17.233Z,16.81
2023-10-10T02:17:23.787Z,16.13
2023-10-10T02:22:48.579Z,15.81
2023-10-10T02:27:57.205Z,15.82
2023-10-10T02:32:59.465Z,15.79
2023-10-10T02:38:06.344Z,15.79
2023-10-10T02:43:20.780Z,16.19
2023-10-10T02:48:24.891Z,15.91
2023-10-10T02:53:27.062Z,16.14
2023-10-10T02:58:39.305Z,16.40
2023-10-10T03:03:43.486Z,16.85
2023-10-10T03:08:53.195Z,16.87
2023-10-10T03:14:02.293Z,15.82
2023-10-10T03:19:04.918Z,15.46
2023-10-10T03:24:16.932Z,15.36
2023-10-10T03:29:28.597Z,16.44
2023-10-10T03:34:34.170Z,17.49
2023-10-10T03:39:55.785Z,16.53
2023-10-10T03:45:16.771Z,15.54
2023-10-10T03:50:37.806Z,16.17
2023-10-10T03:55:58.779Z,17.30
2023-10-10T04:01:20.210Z,16.42
2023-10-10T04:06:41.063Z,15.71
2023-10-10T04:12:01.924Z,15.15
2023-10-10T04:17:23.071Z,15.24
2023-10-10T04:22:43.583Z,16.24
2023-10-10T04:28:04.358Z,16.92
2023-10-10T04:33:24.985Z,16.78
2023-10-10T04:38:45.603Z,15.37
2023-10-10T04:44:06.224Z,14.86
2023-10-10T04:49:26.716Z,14.85
2023-10-10T04:54:47.279Z,16.19
2023-10-10T05:00:08.037Z,17.15
2023-10-10T05:05:29.047Z,15.60
2023-10-10T05:10:49.617Z,14.86
2023-10-10T05:16:10.639Z,14.62
2023-10-10T05:21:31.271Z,14.52
2023-10-10T05:26:33.427Z,14.82
2023-10-10T05:31:37.064Z,15.11
2023-10-10T05:36:39.268Z,16.06
2023-10-10T05:41:42.000Z,15.94
2023-10-10T05:46:45.064Z,15.26
2023-10-10T05:51:47.225Z,16.22
2023-10-10T05:56:49.339Z,16.90
2023-10-10T06:01:51.796Z,15.64
2023-10-10T06:06:54.025Z,14.95
2023-10-10T06:11:56.207Z,14.79
2023-10-10T06:16:58.459Z,15.68
2023-10-10T06:22:03.973Z,16.43
2023-10-10T06:27:10.327Z,16.84
2023-10-10T06:32:17.411Z,16.99
2023-10-10T06:37:19.712Z,17.78
2023-10-10T06:42:28.613Z,18.35
2023-10-10T06:47:33.791Z,17.45
2023-10-10T06:52:37.903Z,17.60
2023-10-10T06:57:43.605Z,17.92
2023-10-10T07:02:55.095Z,18.00
2023-10-10T07:08:00.599Z,18.17
2023-10-10T07:13:04.883Z,18.24
2023-10-10T07:18:16.501Z,18.38
2023-10-10T07:23:22.051Z,18.94
2023-10-10T07:28:27.345Z,19.62
2023-10-10T07:33:41.984Z,19.81
2023-10-10T07:38:44.209Z,20.20
2023-10-10T07:43:50.894Z,20.47
2023-10-10T07:48:55.963Z,20.23
2023-10-10T07:54:04.246Z,20.44
2023-10-10T07:59:07.086Z,20.41
2023-10-10T08:04:09.536Z,20.31
2023-10-10T08:09:12.879Z,20.57
2023-10-10T08:14:15.274Z,20.10
2023-10-10T08:19:17.572Z,19.97
2023-10-10T08:24:21.601Z,20.59
2023-10-10T08:29:28.474Z,20.66
2023-10-10T08:34:30.756Z,21.02
2023-10-10T08:39:40.667Z,21.80
2023-10-10T08:44:49.294Z,22.88
2023-10-10T08:49:51.935Z,24.00
2023-10-10T08:54:54.864Z,23.09
2023-10-10T08:59:57.289Z,21.90
2023-10-10T09:04:59.633Z,21.95
2023-10-10T09:10:15.355Z,22.03
2023-10-10T09:15:18.534Z,21.95
2023-10-10T09:20:31.777Z,22.01
2023-10-10T09:25:43.764Z,22.12
2023-10-10T09:31:04.601Z,21.96
2023-10-10T09:36:10.188Z,21.98
2023-10-10T09:41:37.615Z,22.18
2023-10-10T09:47:01.700Z,22.27
2023-10-10T09:52:22.891Z,22.22
2023-10-10T09:57:28.225Z,22.46
2023-10-10T10:02:42.013Z,22.60
2023-10-10T10:08:14.152Z,22.64
2023-10-10T10:13:57.818Z,22.76
2023-10-10T10:19:18.809Z,22.82
2023-10-10T10:24:34.447Z,22.87
2023-10-10T10:29:38.869Z,22.98
2023-10-10T10:34:47.139Z,23.04
2023-10-10T10:40:08.061Z,23.07
2023-10-10T10:45:37.744Z,23.07
2023-10-10T10:50:42.563Z,23.21
2023-10-10T10:56:04.840Z,23.82
2023-10-10T11:01:09.822Z,26.14
2023-10-10T11:06:32.627Z,28.47
2023-10-10T11:11:34.827Z,29.78
2023-10-10T11:16:40.109Z,29.99
2023-10-10T11:21:50.137Z,29.10
2023-10-10T11:27:07.165Z,26.82
2023-10-10T11:32:12.922Z,25.65
2023-10-10T11:37:25.628Z,25.45
2023-10-10T11:42:34.599Z,25.37
2023-10-10T11:47:46.243Z,24.91
2023-10-10T11:52:54.915Z,24.73
2023-10-10T11:58:07.769Z,24.63
2023-10-10T12:03:15.334Z,24.58
2023-10-10T12:08:25.997Z,24.48
2023-10-10T12:13:34.978Z,24.71
2023-10-10T12:18:45.250Z,24.68
2023-10-10T12:23:49.347Z,24.30
2023-10-10T12:28:53.997Z,24.13
2023-10-10T12:33:56.170Z,24.47
2023-10-10T12:39:06.030Z,24.27
2023-10-10T12:44:08.427Z,24.04
2023-10-10T12:49:13.195Z,24.05
2023-10-10T12:54:19.157Z,24.02
2023-10-10T13:04:32.833Z,23.95
2023-10-10T13:09:43.819Z,23.89
2023-10-10T13:14:52.172Z,23.89
2023-10-10T13:19:54.337Z,24.20
2023-10-10T13:24:57.197Z,24.89
2023-10-10T13:29:59.395Z,25.38
2023-10-10T13:35:02.094Z,25.47
2023-10-10T13:40:07.216Z,25.44
2023-10-10T13:45:13.044Z,25.40
2023-10-10T13:50:32.870Z,25.38
2023-10-10T13:55:35.607Z,25.24
2023-10-10T14:00:44.677Z,25.00
2023-10-10T14:06:02.151Z,24.51
2023-10-10T14:11:05.472Z,24.15
2023-10-10T14:16:07.784Z,24.05
2023-10-10T14:21:12.316Z,23.93
2023-10-10T14:26:14.693Z,23.86
2023-10-10T14:31:19.130Z,23.84
2023-10-10T14:36:22.821Z,23.79
2023-10-10T14:41:33.765Z,23.74
2023-10-10T14:46:36.080Z,23.63
2023-10-10T14:51:38.925Z,23.57
2023-10-10T14:56:51.611Z,23.47
2023-10-10T15:01:57.295Z,23.29
2023-10-10T15:07:00.497Z,23.31
2023-10-10T15:12:03.323Z,23.17
2023-10-10T15:17:06.503Z,23.05
2023-10-10T15:22:17.312Z,22.89
2023-10-10T15:27:20.775Z,22.88
2023-10-10T15:32:22.951Z,22.79
2023-10-10T15:37:28.115Z,22.64
2023-10-10T15:42:30.340Z,22.35
2023-10-10T15:47:32.927Z,22.26
2023-10-10T15:52:35.171Z,22.06
2023-10-10T15:57:37.379Z,21.81
2023-10-10T16:02:41.393Z,21.69
2023-10-10T16:07:56.001Z,21.56
2023-10-10T16:13:08.521Z,21.36
2023-10-10T16:18:11.490Z,21.05
2023-10-10T16:23:13.958Z,20.83
2023-10-10T16:28:16.078Z,20.68
2023-10-10T16:33:22.348Z,21.38
2023-10-10T16:38:24.685Z,21.28
2023-10-10T16:43:26.858Z,20.52
2023-10-10T16:48:32.687Z,20.22
2023-10-10T16:53:40.978Z,20.86
2023-10-10T16:58:45.006Z,21.46
2023-10-10T17:03:50.293Z,21.60
2023-10-10T17:08:55.913Z,21.40
2023-10-10T17:14:01.049Z,21.75
2023-10-10T17:19:16.315Z,21.89
2023-10-10T17:24:22.355Z,21.48
2023-10-10T17:29:28.060Z,21.46
2023-10-10T17:34:34.788Z,20.98
2023-10-10T17:39:37.545Z,20.67
2023-10-10T17:44:39.846Z,20.85
2023-10-10T17:49:42.465Z,20.90
2023-10-10T17:54:46.759Z,20.43
2023-10-10T17:59:53.936Z,20.34
2023-10-10T18:04:56.499Z,20.54
2023-10-10T18:09:58.703Z,20.14
2023-10-10T18:15:01.991Z,19.53
2023-10-10T18:20:15.771Z,20.00
2023-10-10T18:25:18.055Z,20.27
2023-10-10T18:30:22.011Z,19.77
2023-10-10T18:35:28.281Z,19.35
2023-10-10T18:40:31.523Z,20.13
2023-10-10T18:45:38.460Z,20.80
2023-10-10T18:50:40.907Z,20.55
2023-10-10T18:55:43.144Z,19.83
2023-10-10T19:00:45.416Z,19.03
2023-10-10T19:05:53.947Z,18.57
2023-10-10T19:10:56.186Z,18.42
2023-10-10T19:15:58.479Z,19.21
2023-10-10T19:21:01.532Z,19.30
2023-10-10T19:26:05.850Z,19.39
2023-10-10T19:31:08.031Z,18.73
2023-10-10T19:36:10.624Z,18.50
2023-10-10T19:41:16.162Z,18.39
2023-10-10T19:46:21.480Z,18.22
2023-10-10T19:51:23.790Z,18.03
2023-10-10T19:56:26.056Z,18.12
2023-10-10T20:01:28.687Z,18.39
2023-10-10T20:06:31.467Z,18.72
2023-10-10T20:11:36.859Z,18.76
2023-10-10T20:16:39.892Z,18.01
2023-10-10T20:21:42.199Z,18.20
2023-10-10T20:26:44.466Z,17.98
2023-10-10T20:31:46.651Z,18.07
2023-10-10T20:36:48.810Z,18.36
2023-10-10T20:41:51.113Z,17.84
2023-10-10T20:46:53.354Z,17.84
2023-10-10T20:51:56.183Z,17.38
2023-10-10T20:56:58.506Z,17.34
2023-10-10T21:02:01.051Z,17.40
2023-10-10T21:07:03.319Z,17.18
2023-10-10T21:12:08.793Z,17.66
2023-10-10T21:17:13.602Z,18.37
2023-10-10T21:22:16.576Z,17.98
2023-10-10T21:27:19.992Z,17.93
2023-10-10T21:32:22.710Z,18.26
2023-10-10T21:37:25.413Z,18.16
2023-10-10T21:42:27.598Z,17.38
2023-10-10T21:47:29.778Z,16.88
2023-10-10T21:52:32.053Z,16.54
2023-10-10T21:57:37.306Z,17.04
2023-10-10T22:02:39.657Z,17.88
2023-10-10T22:07:44.978Z,17.75
2023-10-10T22:12:50.534Z,17.20
2023-10-10T22:17:58.694Z,17.72
2023-10-10T22:23:02.158Z,18.61
2023-10-10T22:28:05.766Z,18.95
2023-10-10T22:33:12.271Z,18.58
2023-10-10T22:38:14.771Z,17.63
2023-10-10T22:43:16.947Z,16.88
2023-10-10T22:48:19.211Z,16.98
2023-10-10T22:53:21.381Z,17.05
2023-10-10T22:58:23.490Z,16.70
2023-10-10T23:03:25.819Z,16.38
2023-10-10T23:08:27.959Z,16.56
2023-10-10T23:13:30.035Z,17.26
2023-10-10T23:18:37.495Z,17.37
2023-10-10T23:23:42.458Z,17.60
2023-10-10T23:28:45.582Z,17.06
2023-10-10T23:33:47.740Z,16.36
2023-10-10T23:38:50.147Z,17.11
2023-10-10T23:43:52.307Z,18.39
2023-10-10T23:48:56.208Z,18.69
2023-10-10T23:53:59.819Z,18.29
2023-10-10T23:59:03.523Z,18.38
